Time;durP1;ratioP1;P1;durP2;ratioP2;P2;SDS_P1;SDS_P2;PMS_P1;PMS_P2;Temp;Humidity;BMP_temperature;BMP_pressure;BME280_temperature;BME280_humidity;BME280_pressure;Samples;Min_cycle;Max_cycle;Signal;HPM_P1;HPM_P2
2021/07/14 05:01:18;;;;;;;;;10.00;7.25;;;;;17.00;76.84;101324.25;5473192;23;46438;-74
2021/07/14 05:03:46;;;;;;;;;8.50;6.00;;;;;17.03;77.18;101328.53;4918240;28;45421;-74
2021/07/14 05:06:15;;;;;;;;;8.50;8.00;;;;;17.04;76.69;101333.75;4913505;28;45504;-74
2021/07/14 05:08:41;;;;;;;;;9.50;8.25;;;;;17.03;76.57;101331.19;4920660;28;45207;-74
2021/07/14 05:11:07;;;;;;;;;10.25;8.50;;;;;16.99;76.40;101336.66;4923076;28;45453;-74
2021/07/14 05:13:32;;;;;;;;;12.00;9.00;;;;;17.01;76.69;101339.25;4917650;28;46875;-74
2021/07/14 05:15:58;;;;;;;;;9.75;8.25;;;;;17.03;76.94;101347.13;4910841;28;47046;-74
2021/07/14 05:18:23;;;;;;;;;8.00;8.00;;;;;17.02;76.56;101333.00;4915699;28;45368;-74
2021/07/14 05:20:49;;;;;;;;;10.75;7.50;;;;;17.03;76.71;101355.97;4928082;28;45424;-74
2021/07/14 05:23:14;;;;;;;;;8.25;8.25;;;;;17.02;77.13;101348.94;4922367;28;45364;-74
2021/07/14 05:25:39;;;;;;;;;10.50;9.00;;;;;17.04;76.68;101351.53;4931989;28;45343;-73
2021/07/14 05:28:05;;;;;;;;;9.25;8.75;;;;;17.03;77.12;101355.97;4932420;28;45323;-73
2021/07/14 05:30:31;;;;;;;;;10.75;9.50;;;;;17.04;77.27;101355.00;4922634;28;45364;-74
2021/07/14 05:32:56;;;;;;;;;8.75;8.00;;;;;17.06;77.30;101352.31;4922952;28;45519;-74
2021/07/14 05:35:22;;;;;;;;;15.75;12.75;;;;;17.06;77.08;101355.78;4911985;28;46754;-74
2021/07/14 05:37:47;;;;;;;;;11.50;7.00;;;;;17.07;77.45;101348.69;4937283;28;45496;-74
2021/07/14 05:40:13;;;;;;;;;11.50;10.25;;;;;17.08;77.25;101359.25;4925670;28;45492;-74
2021/07/14 05:42:38;;;;;;;;;13.00;11.50;;;;;17.13;77.38;101353.69;4921527;28;45665;-74
2021/07/14 05:45:05;;;;;;;;;13.50;12.25;;;;;17.15;77.56;101351.84;4920537;28;48245;-74
2021/07/14 05:47:30;;;;;;;;;11.00;10.50;;;;;17.18;77.47;101356.16;4937349;28;45234;-74
2021/07/14 05:49:55;;;;;;;;;15.00;12.50;;;;;17.20;76.96;101354.28;4941093;28;45160;-74
2021/07/14 05:52:21;;;;;;;;;9.75;8.75;;;;;17.21;77.50;101350.69;4939794;28;45247;-74
2021/07/14 05:54:46;;;;;;;;;11.75;11.00;;;;;17.23;77.21;101354.13;4921281;28;46939;-74
2021/07/14 05:57:12;;;;;;;;;14.50;9.25;;;;;17.20;77.92;101351.63;4941730;28;45137;-74
2021/07/14 05:59:37;;;;;;;;;14.25;13.00;;;;;17.23;77.59;101355.91;4927331;28;45741;-74
2021/07/14 06:02:03;;;;;;;;;12.25;12.25;;;;;17.24;77.45;101353.16;4935901;28;45618;-74
2021/07/14 06:04:28;;;;;;;;;9.25;9.25;;;;;17.25;77.23;101357.56;4924617;28;45691;-74
2021/07/14 06:06:56;;;;;;;;;11.00;9.25;;;;;17.25;77.03;101354.03;4936046;28;45566;-74
2021/07/14 06:09:21;;;;;;;;;11.00;9.00;;;;;17.23;77.18;101364.75;4925382;28;45444;-74
2021/07/14 06:11:46;;;;;;;;;10.25;9.25;;;;;17.20;76.57;101355.13;4922179;28;45497;-74
2021/07/14 06:14:12;;;;;;;;;12.50;10.25;;;;;17.20;76.69;101362.25;4921241;28;46263;-74
2021/07/14 06:16:37;;;;;;;;;11.50;11.50;;;;;17.21;76.85;101363.97;4926069;28;45334;-74
2021/07/14 06:19:02;;;;;;;;;11.25;9.25;;;;;17.19;76.85;101368.47;4934772;28;45230;-74
2021/07/14 06:21:28;;;;;;;;;8.25;8.25;;;;;17.19;76.32;101368.47;4941540;28;45328;-74
2021/07/14 06:23:53;;;;;;;;;7.50;6.00;;;;;17.15;76.23;101372.19;4929949;28;45388;-74
2021/07/14 06:26:20;;;;;;;;;8.50;7.25;;;;;17.10;76.69;101359.16;4921935;28;45404;-74
2021/07/14 06:28:45;;;;;;;;;9.25;9.25;;;;;17.09;76.37;101363.59;4921907;28;45281;-74
2021/07/14 06:31:11;;;;;;;;;7.00;7.00;;;;;17.10;76.56;101360.03;4921781;28;45212;-74
2021/07/14 06:33:38;;;;;;;;;7.50;6.25;;;;;17.10;76.50;101368.00;4936170;28;47461;-74
2021/07/14 06:36:04;;;;;;;;;9.50;9.00;;;;;17.13;76.51;101374.09;4924454;28;45183;-74
2021/07/14 06:38:30;;;;;;;;;9.75;9.75;;;;;17.13;75.83;101371.44;4922112;28;45401;-74
2021/07/14 06:40:56;;;;;;;;;11.00;8.50;;;;;17.14;76.49;101375.78;4921989;28;45332;-74
2021/07/14 06:43:21;;;;;;;;;8.50;8.50;;;;;17.18;76.00;101380.06;4921628;28;45445;-74
2021/07/14 06:45:47;;;;;;;;;9.00;9.00;;;;;17.18;76.61;101391.53;4912594;28;45332;-74
2021/07/14 06:48:14;;;;;;;;;10.00;8.00;;;;;17.15;77.35;101394.34;4922184;28;45331;-74
2021/07/14 06:50:39;;;;;;;;;13.00;8.75;;;;;17.13;77.47;101382.91;4921640;28;45251;-74
2021/07/14 06:53:05;;;;;;;;;10.75;9.00;;;;;17.11;76.79;101379.47;4924758;28;45358;-74
2021/07/14 06:55:32;;;;;;;;;9.25;9.25;;;;;17.10;77.39;101381.28;4915365;28;45232;-74
2021/07/14 06:57:57;;;;;;;;;7.75;7.25;;;;;17.12;77.75;101382.97;4913731;28;45400;-74
2021/07/14 07:00:23;;;;;;;;;12.25;10.50;;;;;17.12;78.06;101377.66;4916382;28;45430;-73
2021/07/14 07:02:49;;;;;;;;;8.75;8.75;;;;;17.14;77.60;101381.09;4919917;28;46133;-73
2021/07/14 07:05:15;;;;;;;;;8.00;8.00;;;;;17.14;77.36;101379.31;4921447;28;45308;-73
2021/07/14 07:07:41;;;;;;;;;11.00;9.25;;;;;17.14;77.55;101378.44;4912012;28;45316;-73
2021/07/14 07:10:07;;;;;;;;;7.50;7.50;;;;;17.14;77.16;101391.72;4921129;28;45744;-73
2021/07/14 07:12:34;;;;;;;;;9.50;8.00;;;;;17.13;76.79;101382.91;4923583;28;48325;-73
2021/07/14 07:14:59;;;;;;;;;9.25;9.25;;;;;17.13;77.38;101390.03;4914354;28;45492;-73
2021/07/14 07:17:25;;;;;;;;;12.00;9.00;;;;;17.14;77.21;101389.94;4916246;28;45448;-73
2021/07/14 07:19:51;;;;;;;;;9.00;6.75;;;;;17.16;77.14;101390.75;4909148;28;45264;-73
2021/07/14 07:22:16;;;;;;;;;9.25;9.00;;;;;17.18;77.32;101390.69;4908638;28;45409;-74
2021/07/14 07:24:41;;;;;;;;;9.50;8.25;;;;;17.23;77.23;101390.44;4906491;28;45364;-74
2021/07/14 07:27:08;;;;;;;;;9.25;8.25;;;;;17.25;76.92;101378.81;4940806;28;45429;-73
2021/07/14 07:29:37;;;;;;;;;8.75;7.00;;;;;17.29;76.88;101385.66;4910407;28;45529;-73
2021/07/14 07:32:03;;;;;;;;;8.75;8.75;;;;;17.35;77.03;101386.28;4916103;28;45433;-73
2021/07/14 07:34:29;;;;;;;;;12.00;8.50;;;;;17.40;76.95;101392.22;4915217;28;45637;-74
2021/07/14 07:36:54;;;;;;;;;9.50;8.50;;;;;17.44;76.41;101388.47;4917295;28;45366;-73
2021/07/14 07:39:20;;;;;;;;;8.00;6.75;;;;;17.48;76.99;101390.03;4924694;28;45227;-73
2021/07/14 07:41:46;;;;;;;;;8.25;7.25;;;;;17.54;76.00;101389.72;4910643;28;46539;-74
2021/07/14 07:44:11;;;;;;;;;7.00;6.25;;;;;17.60;76.47;101388.53;4925337;28;45258;-73
2021/07/14 07:46:39;;;;;;;;;10.75;5.50;;;;;17.64;76.47;101386.56;4932094;28;45215;-74
2021/07/14 07:49:05;;;;;;;;;12.00;7.00;;;;;17.69;75.94;101384.53;4923294;28;45276;-73
2021/07/14 07:51:30;;;;;;;;;10.25;7.00;;;;;17.73;76.34;101391.38;4920634;28;47163;-73
2021/07/14 07:53:57;;;;;;;;;7.00;7.00;;;;;17.80;76.00;101393.75;4924538;28;45259;-73
2021/07/14 07:56:23;;;;;;;;;8.00;8.00;;;;;17.85;76.07;101391.69;4916527;28;45319;-73
2021/07/14 07:58:49;;;;;;;;;6.75;6.25;;;;;17.90;75.63;101388.78;4911975;28;45307;-73
2021/07/14 08:01:14;;;;;;;;;8.50;8.00;;;;;17.94;75.47;101401.84;4920488;28;45211;-73
2021/07/14 08:03:40;;;;;;;;;8.50;7.50;;;;;17.96;75.18;101397.28;4905149;28;45238;-73
2021/07/14 08:06:06;;;;;;;;;9.75;7.50;;;;;17.97;74.98;101400.81;4919499;28;45230;-73
2021/07/14 08:08:31;;;;;;;;;6.50;5.75;;;;;17.97;74.96;101395.50;4923846;28;45275;-73
2021/07/14 08:10:57;;;;;;;;;7.00;7.00;;;;;18.01;74.26;101405.00;4934290;28;46893;-73
2021/07/14 08:13:24;;;;;;;;;8.25;8.25;;;;;18.04;74.84;101406.66;4919195;28;45181;-73
2021/07/14 08:15:50;;;;;;;;;11.25;10.00;;;;;18.05;73.66;101403.06;4907076;28;45263;-73
2021/07/14 08:18:15;;;;;;;;;7.00;7.00;;;;;18.04;73.47;101417.28;4934728;28;45636;-73
2021/07/14 08:20:41;;;;;;;;;12.75;10.25;;;;;17.99;73.48;101410.41;4905999;28;45325;-73
2021/07/14 08:23:06;;;;;;;;;9.00;7.25;;;;;17.96;73.46;101420.34;4922818;28;45335;-73
2021/07/14 08:25:32;;;;;;;;;10.25;7.00;;;;;17.94;73.80;101412.47;4933086;28;45315;-73
2021/07/14 08:27:57;;;;;;;;;6.25;5.00;;;;;17.95;73.98;101421.31;4911459;28;45312;-73
2021/07/14 08:30:23;;;;;;;;;7.00;6.25;;;;;17.93;73.03;101416.06;4909907;28;45325;-74
2021/07/14 08:32:48;;;;;;;;;6.25;6.00;;;;;17.91;72.78;101425.91;4918052;28;45239;-73
2021/07/14 08:35:14;;;;;;;;;10.00;7.50;;;;;17.88;72.61;101424.28;4926935;28;45345;-73
2021/07/14 08:37:39;;;;;;;;;6.50;5.25;;;;;17.87;72.58;101427.91;4923839;28;45510;-73
2021/07/14 08:40:07;;;;;;;;;6.00;5.00;;;;;17.89;72.79;101417.16;4919662;28;45393;-73
2021/07/14 08:42:36;;;;;;;;;6.50;6.50;;;;;17.89;72.30;101430.47;4905751;28;45359;-73
2021/07/14 08:45:06;;;;;;;;;8.75;6.00;;;;;17.90;72.29;101436.66;4918628;28;45414;-73
2021/07/14 08:47:33;;;;;;;;;9.75;7.50;;;;;17.88;71.91;101436.72;4942677;28;45388;-73
2021/07/14 08:49:59;;;;;;;;;6.50;4.75;;;;;17.83;71.45;101434.31;4918031;28;45393;-73
2021/07/14 08:52:24;;;;;;;;;4.75;4.75;;;;;17.81;71.84;101432.66;4908091;28;45387;-73
2021/07/14 08:54:50;;;;;;;;;5.50;5.00;;;;;17.80;72.06;101431.81;4920996;28;45287;-73
2021/07/14 08:57:17;;;;;;;;;5.25;5.25;;;;;17.83;72.01;101433.47;4919012;28;45415;-73
2021/07/14 08:59:43;;;;;;;;;6.00;6.00;;;;;17.85;71.83;101435.06;4921629;28;46461;-73
2021/07/14 09:02:09;;;;;;;;;7.00;5.50;;;;;17.83;71.86;101428.16;4918024;28;45847;-73
2021/07/14 09:04:36;;;;;;;;;3.50;3.50;;;;;17.86;71.80;101435.94;4923279;28;45246;-74
2021/07/14 09:07:01;;;;;;;;;5.75;5.50;;;;;17.86;71.92;101438.59;4936281;28;45313;-73
2021/07/14 09:09:28;;;;;;;;;8.50;7.00;;;;;17.88;72.17;101444.69;4923214;28;45382;-73
2021/07/14 09:11:59;;;;;;;;;5.75;5.25;;;;;17.90;71.84;101447.28;4912726;28;45316;-73
2021/07/14 09:14:32;;;;;;;;;7.25;7.25;;;;;17.87;71.39;101448.31;4932328;28;45328;-73
2021/07/14 09:16:58;;;;;;;;;7.25;7.25;;;;;17.84;71.49;101445.81;4923725;28;47063;-74
2021/07/14 09:19:27;;;;;;;;;5.50;5.00;;;;;17.86;71.69;101443.91;4919149;28;45446;-74
2021/07/14 09:21:54;;;;;;;;;5.50;5.50;;;;;17.90;72.02;101436.66;4936852;28;45358;-74
2021/07/14 09:24:33;;;;;;;;;6.00;6.00;;;;;17.93;71.34;101444.44;4916652;28;45391;-74
2021/07/14 09:27:02;;;;;;;;;6.75;6.75;;;;;17.92;71.94;101440.94;4916049;28;45600;-73
2021/07/14 09:29:29;;;;;;;;;7.25;5.50;;;;;17.93;71.77;101447.09;4928128;28;45271;-73
2021/07/14 09:31:55;;;;;;;;;8.50;6.00;;;;;17.95;72.07;101451.41;4921540;28;45411;-73
2021/07/14 09:34:28;;;;;;;;;8.00;7.00;;;;;17.97;71.91;101449.53;4932223;28;45366;-73
2021/07/14 09:37:04;;;;;;;;;6.50;6.00;;;;;17.99;71.52;101441.47;4927405;28;46159;-73
2021/07/14 09:39:40;;;;;;;;;4.50;4.00;;;;;18.00;71.79;101446.69;4936588;28;47382;-73
2021/07/14 09:42:10;;;;;;;;;5.75;5.75;;;;;18.03;71.08;101453.66;4926557;28;45607;-73
2021/07/14 09:44:47;;;;;;;;;6.50;6.00;;;;;18.07;71.05;101451.69;4938731;28;45430;-74
2021/07/14 09:47:15;;;;;;;;;7.00;6.00;;;;;18.09;71.00;101447.16;4912562;28;45422;-74
2021/07/14 09:49:40;;;;;;;;;5.50;5.25;;;;;18.15;71.33;101452.13;4934426;28;47081;-73
2021/07/14 09:52:13;;;;;;;;;4.75;4.75;;;;;18.24;70.64;101455.28;4913444;28;45279;-74
2021/07/14 09:54:40;;;;;;;;;5.00;5.00;;;;;18.28;70.98;101456.81;4921417;28;45628;-73
2021/07/14 09:57:16;;;;;;;;;7.00;5.50;;;;;18.33;70.06;101454.78;4919144;28;45512;-74
2021/07/14 09:59:42;;;;;;;;;4.75;3.75;;;;;18.33;69.89;101457.44;4912481;28;45353;-73
2021/07/14 10:02:13;;;;;;;;;5.00;5.00;;;;;18.32;69.10;101458.41;4931348;28;45601;-73
2021/07/14 10:04:40;;;;;;;;;5.00;4.00;;;;;18.31;69.66;101454.00;4919994;28;45236;-73
2021/07/14 10:07:32;;;;;;;;;5.75;5.00;;;;;18.36;69.53;101459.06;4922298;28;45464;-73
2021/07/14 10:10:10;;;;;;;;;4.00;3.75;;;;;18.37;69.94;101453.66;4917691;28;45820;-73
2021/07/14 10:12:37;;;;;;;;;4.00;4.00;;;;;18.38;69.24;101467.81;4921934;28;45593;-73
2021/07/14 10:15:08;;;;;;;;;6.00;6.00;;;;;18.36;69.45;101470.59;4921866;28;45287;-73
2021/07/14 10:17:41;;;;;;;;;6.00;5.25;;;;;18.36;69.08;101467.06;4917638;28;46133;-73
2021/07/14 10:20:21;;;;;;;;;6.00;3.75;;;;;18.36;69.63;101470.59;4920721;28;45434;-73
2021/07/14 10:22:50;;;;;;;;;4.75;4.50;;;;;18.38;68.56;101466.03;4921840;28;45328;-73
2021/07/14 10:25:17;;;;;;;;;11.50;5.25;;;;;18.40;69.38;101464.13;4922371;28;45362;-73
2021/07/14 10:27:45;;;;;;;;;4.50;4.00;;;;;18.41;69.05;101471.19;4919704;28;46030;-73
2021/07/14 10:30:11;;;;;;;;;6.50;6.25;;;;;18.44;68.75;101471.03;4921508;28;46612;-73
2021/07/14 10:32:40;;;;;;;;;6.00;6.00;;;;;18.48;69.39;101463.72;4922106;28;45290;-73
2021/07/14 10:35:07;;;;;;;;;6.75;4.25;;;;;18.53;69.08;101464.31;4922037;28;45179;-73
2021/07/14 10:37:33;;;;;;;;;7.00;6.25;;;;;18.58;69.10;101469.38;4912148;28;46168;-73
2021/07/14 10:39:59;;;;;;;;;6.50;5.75;;;;;18.62;68.97;101481.56;4918517;28;45625;-73
2021/07/14 10:42:25;;;;;;;;;5.00;5.00;;;;;18.68;69.02;101477.72;4921460;28;45370;-73
2021/07/14 10:44:51;;;;;;;;;8.00;6.00;;;;;18.71;68.71;101477.56;4922519;28;45356;-73
2021/07/14 10:47:17;;;;;;;;;5.50;5.50;;;;;18.76;68.67;101482.63;4928601;28;46155;-73
2021/07/14 10:49:43;;;;;;;;;7.00;4.00;;;;;18.81;68.65;101475.25;4915103;28;47969;-73
2021/07/14 10:52:09;;;;;;;;;5.25;5.25;;;;;18.85;68.73;101482.09;4922079;28;45290;-73
2021/07/14 10:54:35;;;;;;;;;7.00;5.25;;;;;18.88;68.35;101476.63;4925113;28;45220;-73
2021/07/14 10:57:04;;;;;;;;;8.50;5.00;;;;;18.93;68.08;101478.16;4920239;28;45229;-73
2021/07/14 10:59:30;;;;;;;;;7.25;6.00;;;;;18.98;68.35;101473.41;4915242;28;47243;-73
2021/07/14 11:01:56;;;;;;;;;5.00;4.00;;;;;19.06;67.83;101479.13;4924723;28;45357;-73
2021/07/14 11:04:27;;;;;;;;;5.25;5.25;;;;;19.15;68.08;101479.56;4925422;28;45250;-73
2021/07/14 11:06:55;;;;;;;;;9.00;8.00;;;;;19.23;67.85;101488.88;4912320;28;45386;-73
2021/07/14 11:09:35;;;;;;;;;6.25;6.25;;;;;19.34;67.82;101484.72;4918398;28;46366;-73
2021/07/14 11:12:06;;;;;;;;;7.25;6.25;;;;;19.42;67.68;101478.94;4932993;28;45258;-73
2021/07/14 11:14:49;;;;;;;;;6.25;5.00;;;;;19.54;67.70;101480.88;4915651;28;45307;-73
2021/07/14 11:17:15;;;;;;;;;8.25;7.75;;;;;19.64;67.38;101482.97;4911141;28;46031;-73
2021/07/14 11:19:41;;;;;;;;;7.25;5.25;;;;;19.74;67.51;101489.50;4924999;28;45545;-73
2021/07/14 11:22:07;;;;;;;;;7.00;6.00;;;;;19.83;67.10;101487.22;4939861;28;45335;-73
2021/07/14 11:24:53;;;;;;;;;6.50;6.50;;;;;19.87;66.54;101486.94;4933582;28;45496;-74
2021/07/14 11:27:18;;;;;;;;;8.75;7.00;;;;;19.87;65.78;101483.41;4918941;28;46257;-74
2021/07/14 11:29:45;;;;;;;;;5.75;5.75;;;;;19.89;65.93;101476.16;4924520;28;45427;-74
2021/07/14 11:32:11;;;;;;;;;8.00;6.25;;;;;19.93;66.22;101487.53;4929315;28;46136;-74
2021/07/14 11:34:37;;;;;;;;;6.75;6.00;;;;;19.98;66.45;101469.41;4930202;28;45228;-74
2021/07/14 11:37:20;;;;;;;;;6.50;6.50;;;;;20.09;66.26;101482.09;4923972;28;45225;-74
2021/07/14 11:39:45;;;;;;;;;7.00;5.50;;;;;20.15;65.77;101473.72;4922837;28;47932;-74
2021/07/14 11:42:16;;;;;;;;;7.25;7.25;;;;;20.19;64.87;101472.59;4924446;28;45282;-74
2021/07/14 11:44:41;;;;;;;;;12.50;9.25;;;;;20.20;64.51;101476.13;4928625;28;45321;-74
2021/07/14 11:47:37;;;;;;;;;8.00;7.25;;;;;20.22;64.58;101472.38;4907477;28;46447;-74
2021/07/14 11:50:04;;;;;;;;;11.25;8.25;;;;;20.20;63.03;101486.81;4920536;28;45363;-75
2021/07/14 11:52:41;;;;;;;;;9.00;7.50;;;;;20.21;65.42;101475.16;4924877;28;45508;-75
2021/07/14 11:55:24;;;;;;;;;7.75;6.50;;;;;20.23;64.88;101476.78;4921720;28;45162;-74
2021/07/14 11:57:51;;;;;;;;;6.50;6.50;;;;;20.28;64.25;101472.94;4917788;28;45338;-74
2021/07/14 12:00:17;;;;;;;;;7.75;7.75;;;;;20.29;62.85;101478.22;4923356;28;45230;-74
2021/07/14 12:03:00;;;;;;;;;8.75;7.25;;;;;20.29;63.67;101467.53;4924535;28;45616;-74
2021/07/14 12:05:36;;;;;;;;;6.75;6.75;;;;;20.30;62.39;101476.38;4931357;28;45151;-74
2021/07/14 12:08:13;;;;;;;;;7.00;6.25;;;;;20.29;62.96;101472.88;4925305;28;45402;-74
2021/07/14 12:10:40;;;;;;;;;5.50;5.50;;;;;20.23;61.25;101474.09;4917678;28;45394;-74
2021/07/14 12:13:07;;;;;;;;;9.00;8.00;;;;;20.18;62.62;101481.53;4929299;28;45330;-74
2021/07/14 12:15:54;;;;;;;;;10.00;8.75;;;;;20.18;63.04;101483.34;4924095;28;45405;-74
2021/07/14 12:18:19;;;;;;;;;12.75;10.50;;;;;20.24;63.54;101480.31;4919973;28;45315;-74
2021/07/14 12:20:49;;;;;;;;;8.25;8.25;;;;;20.30;63.09;101490.59;4923937;28;46352;-74
2021/07/14 12:23:16;;;;;;;;;7.25;7.25;;;;;20.35;62.22;101491.16;4924018;28;45376;-74
2021/07/14 12:25:42;;;;;;;;;8.75;8.75;;;;;20.39;63.06;101489.16;4926791;28;45519;-74
2021/07/14 12:28:12;;;;;;;;;8.75;8.75;;;;;20.49;62.98;101488.56;4923985;28;45489;-74
2021/07/14 12:30:47;;;;;;;;;11.50;9.75;;;;;20.54;62.14;101492.69;4942641;28;45337;-74
2021/07/14 12:33:16;;;;;;;;;8.50;8.50;;;;;20.56;61.62;101487.22;4938492;28;45246;-74
2021/07/14 12:35:43;;;;;;;;;9.50;9.25;;;;;20.60;61.66;101495.88;4916756;28;45513;-74
2021/07/14 12:38:15;;;;;;;;;8.00;8.00;;;;;20.66;62.33;101495.50;4918510;28;45470;-74
2021/07/14 12:40:44;;;;;;;;;9.50;9.25;;;;;20.71;60.80;101497.88;4918288;28;45559;-74
2021/07/14 12:43:13;;;;;;;;;10.50;9.00;;;;;20.71;61.86;101490.72;4919150;28;45640;-74
2021/07/14 12:45:40;;;;;;;;;10.25;10.25;;;;;20.73;60.96;101491.50;4923614;28;45295;-74
2021/07/14 12:48:20;;;;;;;;;9.50;9.50;;;;;20.73;60.28;101491.50;4922372;28;45495;-74
2021/07/14 12:50:47;;;;;;;;;13.25;12.25;;;;;20.74;61.22;101490.50;4924436;28;48312;-74
2021/07/14 12:53:13;;;;;;;;;11.75;9.50;;;;;20.77;60.92;101481.44;4920803;28;45541;-74
2021/07/14 12:55:40;;;;;;;;;10.00;10.00;;;;;;;;4938438;28;45464;-74
2021/07/14 12:58:12;;;;;;;;;10.50;10.50;;;;;20.79;60.33;101484.91;4923018;28;45290;-74
2021/07/14 13:00:40;;;;;;;;;7.25;7.25;;;;;20.77;58.77;101484.13;4920717;28;46352;-74
2021/07/14 13:03:08;;;;;;;;;9.00;8.50;;;;;20.76;59.01;101480.59;4926407;28;45405;-74
2021/07/14 13:05:35;;;;;;;;;8.00;8.00;;;;;20.80;59.59;101483.94;4928251;28;47055;-75
2021/07/14 13:08:06;;;;;;;;;7.75;7.00;;;;;20.83;59.37;101491.75;4916607;28;45438;-74
2021/07/14 13:10:32;;;;;;;;;7.75;7.50;;;;;20.79;59.20;101483.06;4925767;28;46553;-74
2021/07/14 13:12:58;;;;;;;;;13.00;11.00;;;;;20.78;58.25;101483.16;4922918;28;45308;-75
2021/07/14 13:15:26;;;;;;;;;9.50;9.00;;;;;20.82;59.80;101484.69;4919385;28;45503;-75
2021/07/14 13:18:05;;;;;;;;;9.00;8.00;;;;;20.88;59.42;101491.44;4920871;28;46212;-75
2021/07/14 13:20:42;;;;;;;;;10.50;9.00;;;;;20.91;59.74;101494.75;4935629;28;47420;-75
2021/07/14 13:23:10;;;;;;;;;13.50;10.75;;;;;20.90;59.34;101498.41;4921539;28;46359;-75
2021/07/14 13:25:51;;;;;;;;;10.00;9.25;;;;;20.87;59.46;101497.72;4912876;28;45457;-75
2021/07/14 13:28:29;;;;;;;;;9.25;9.25;;;;;20.90;59.19;101505.56;4917992;28;45351;-75
2021/07/14 13:30:54;;;;;;;;;9.75;9.50;;;;;20.88;60.20;101503.00;4938012;28;45569;-75
2021/07/14 13:33:19;;;;;;;;;7.75;6.25;;;;;20.89;59.12;101501.19;4922512;28;45306;-75
2021/07/14 13:35:48;;;;;;;;;9.00;9.00;;;;;20.92;60.24;101493.81;4920288;28;45530;-75
2021/07/14 13:38:33;;;;;;;;;8.75;7.50;;;;;20.98;59.88;101494.38;4915453;28;45438;-75
2021/07/14 13:41:20;;;;;;;;;12.50;10.25;;;;;21.06;59.59;101496.56;4932236;28;45376;-75
2021/07/14 13:43:53;;;;;;;;;12.25;9.00;;;;;21.16;59.84;101494.16;4942060;28;45377;-75
2021/07/14 13:46:22;;;;;;;;;8.75;8.25;;;;;21.21;58.36;101498.22;4930541;28;45441;-75
2021/07/14 13:49:00;;;;;;;;;10.00;10.00;;;;;21.24;59.35;101492.66;4907425;28;45324;-75
2021/07/14 13:51:30;;;;;;;;;13.00;10.00;;;;;21.24;57.87;101499.81;4918495;28;46506;-75
2021/07/14 13:53:56;;;;;;;;;7.50;7.50;;;;;21.20;58.52;101499.19;4937399;28;45353;-75
2021/07/14 13:56:29;;;;;;;;;11.50;10.25;;;;;21.21;58.59;101495.53;4921994;28;45516;-75
2021/07/14 13:58:54;;;;;;;;;9.75;8.25;;;;;21.24;58.41;101510.50;4911813;28;45404;-75
2021/07/14 14:01:24;;;;;;;;;13.25;12.25;;;;;21.22;57.48;101509.75;4915107;28;46211;-75
2021/07/14 14:03:57;;;;;;;;;10.25;8.75;;;;;21.21;57.68;101511.56;4916531;28;45381;-75
2021/07/14 14:06:22;;;;;;;;;12.25;10.25;;;;;21.20;58.06;101515.22;4922805;28;45445;-74
2021/07/14 14:08:54;;;;;;;;;8.50;8.00;;;;;21.22;58.51;101512.44;4922162;28;45308;-75
2021/07/14 14:11:28;;;;;;;;;8.50;8.50;;;;;21.24;58.70;101510.50;4916993;28;45773;-75
2021/07/14 14:13:53;;;;;;;;;11.25;11.25;;;;;21.26;58.95;101513.94;4933390;28;45212;-75
2021/07/14 14:16:19;;;;;;;;;8.50;8.50;;;;;21.26;58.29;101511.25;4903607;28;45392;-75
2021/07/14 14:18:44;;;;;;;;;13.50;12.50;;;;;21.24;58.97;101516.72;4919692;28;45286;-75
2021/07/14 14:21:10;;;;;;;;;12.50;11.25;;;;;21.26;59.54;101521.97;4913506;28;47785;-75
2021/07/14 14:23:37;;;;;;;;;13.50;12.50;;;;;21.34;58.61;101500.06;4938132;28;45502;-75
2021/07/14 14:26:04;;;;;;;;;14.00;14.00;;;;;21.44;58.62;101503.84;4941576;28;45532;-75
2021/07/14 14:28:29;;;;;;;;;13.00;12.50;;;;;21.56;57.80;101509.31;4941265;28;45250;-75
2021/07/14 14:30:57;;;;;;;;;11.00;10.00;;;;;21.68;58.38;101503.13;4924950;28;46126;-75
2021/07/14 14:33:23;;;;;;;;;15.00;13.50;;;;;21.76;58.73;101499.91;4921797;28;45548;-75
2021/07/14 14:35:49;;;;;;;;;13.25;12.50;;;;;21.77;56.94;101517.69;4922321;28;45291;-75
2021/07/14 14:38:16;;;;;;;;;15.00;13.25;;;;;21.77;56.47;101516.84;4922002;28;45228;-75
2021/07/14 14:40:45;;;;;;;;;9.50;9.50;;;;;21.73;57.43;101512.66;4922020;28;45500;-75
2021/07/14 14:43:11;;;;;;;;;12.00;12.00;;;;;21.70;56.80;101516.41;4914429;28;45477;-75
2021/07/14 14:45:37;;;;;;;;;9.25;9.25;;;;;21.68;56.50;101519.16;4924386;28;45442;-75
2021/07/14 14:48:03;;;;;;;;;13.50;12.75;;;;;21.58;56.39;101518.09;4920825;28;45485;-75
2021/07/14 14:50:29;;;;;;;;;15.75;14.50;;;;;21.45;55.88;101518.94;4924065;28;45322;-74
2021/07/14 14:52:54;;;;;;;;;13.75;11.75;;;;;21.38;56.90;101516.78;4922011;28;45378;-75
2021/07/14 14:55:20;;;;;;;;;15.50;14.00;;;;;21.35;57.15;101523.19;4921997;28;45574;-75
2021/07/14 14:57:46;;;;;;;;;12.75;11.25;;;;;21.32;56.13;101524.25;4912660;28;46516;-75
2021/07/14 15:00:14;;;;;;;;;10.00;10.00;;;;;21.31;57.26;101521.69;4917019;28;46598;-75
2021/07/14 15:02:40;;;;;;;;;13.75;11.25;;;;;21.35;56.83;101525.84;4921672;28;45642;-75
2021/07/14 15:05:06;;;;;;;;;11.50;10.75;;;;;21.43;57.08;101525.34;4914130;28;45294;-75
2021/07/14 15:07:32;;;;;;;;;18.50;14.25;;;;;21.48;57.28;101529.41;4934194;28;45543;-75
2021/07/14 15:09:57;;;;;;;;;13.00;12.00;;;;;21.50;57.33;101521.28;4921312;28;47216;-74
2021/07/14 15:12:22;;;;;;;;;17.00;15.00;;;;;21.50;56.59;101520.44;4921646;28;45239;-74
2021/07/14 15:14:48;;;;;;;;;13.75;10.50;;;;;21.46;56.00;101525.13;4921715;28;45473;-75
2021/07/14 15:17:13;;;;;;;;;11.50;10.75;;;;;21.44;56.36;101522.56;4918125;28;45505;-75
2021/07/14 15:19:39;;;;;;;;;17.00;13.75;;;;;21.43;56.82;101518.19;4913732;28;46504;-75
2021/07/14 15:22:06;;;;;;;;;13.50;11.25;;;;;21.45;56.57;101524.28;4931485;28;45220;-75
2021/07/14 15:24:33;;;;;;;;;12.00;11.25;;;;;21.45;56.50;101521.59;4940923;28;45427;-76
2021/07/14 15:29:43;;;;;;;;;17.25;16.75;;;;;21.48;55.69;101526.72;4901979;28;45358;-75
2021/07/14 15:32:08;;;;;;;;;12.75;11.50;;;;;21.43;55.36;101515.50;4925936;28;45342;-75
2021/07/14 15:34:34;;;;;;;;;15.00;15.00;;;;;21.41;55.96;101532.63;4944209;28;45386;-74
2021/07/14 15:37:01;;;;;;;;;14.75;13.25;;;;;21.36;56.45;101536.44;4943414;28;45287;-75
2021/07/14 15:39:27;;;;;;;;;10.00;10.00;;;;;21.31;55.58;101538.56;4915031;28;45520;-75
2021/07/14 15:41:52;;;;;;;;;12.00;12.00;;;;;21.28;55.75;101538.78;4911903;28;45273;-74
2021/07/14 15:44:18;;;;;;;;;12.00;12.00;;;;;21.25;54.96;101534.50;4924857;28;45418;-74
2021/07/14 15:46:43;;;;;;;;;14.50;11.75;;;;;21.24;56.24;101537.25;4923709;28;45431;-76
2021/07/14 15:49:09;;;;;;;;;10.75;10.75;;;;;21.20;56.21;101527.72;4924605;28;45516;-75
2021/07/14 15:51:34;;;;;;;;;12.50;11.50;;;;;21.20;57.64;101525.91;4925254;28;45179;-75
2021/07/14 15:53:59;;;;;;;;;11.25;10.00;;;;;21.21;56.32;101540.97;4926321;28;45593;-76
2021/07/14 15:56:28;;;;;;;;;13.75;11.00;;;;;21.17;56.47;101527.91;4928553;28;46855;-75
2021/07/14 15:58:54;;;;;;;;;10.25;9.00;;;;;21.10;56.48;101525.66;4932123;28;45521;-75
2021/07/14 16:01:20;;;;;;;;;11.50;11.50;;;;;21.09;56.88;101528.41;4928346;28;45183;-75
2021/07/14 16:03:45;;;;;;;;;11.50;11.50;;;;;21.07;56.75;101533.88;4911798;28;45275;-75
2021/07/14 16:06:11;;;;;;;;;12.50;11.50;;;;;21.05;56.58;101535.78;4916254;28;45470;-75
2021/07/14 16:08:36;;;;;;;;;16.50;13.50;;;;;21.03;57.18;101540.38;4916840;28;46199;-75
2021/07/14 16:11:03;;;;;;;;;12.50;11.00;;;;;21.04;57.52;101541.25;4913276;28;45547;-75
2021/07/14 16:13:29;;;;;;;;;15.25;14.75;;;;;21.02;57.06;101554.69;4922659;28;45444;-75
2021/07/14 16:15:54;;;;;;;;;16.00;14.50;;;;;21.01;57.03;101544.97;4923740;28;45324;-75
2021/07/14 16:18:20;;;;;;;;;9.50;9.50;;;;;21.03;57.30;101545.72;4924222;28;46707;-75
2021/07/14 16:20:47;;;;;;;;;15.25;14.00;;;;;21.06;56.64;101539.34;4916216;28;45335;-75
2021/07/14 16:23:15;;;;;;;;;13.25;12.75;;;;;21.06;56.61;101542.88;4919645;28;45311;-75
2021/07/14 16:25:41;;;;;;;;;12.75;12.75;;;;;21.07;56.39;101541.91;4936793;28;45313;-75